createdAt,value
2022-09-04T00:00:38.174Z,63.28
2022-09-04T00:01:40.076Z,63.18
2022-09-04T00:02:38.191Z,63.18
2022-09-04T00:03:38.202Z,63.58
2022-09-04T00:04:38.508Z,63.38
2022-09-04T00:05:38.591Z,63.68
2022-09-04T00:06:38.265Z,63.92
2022-09-04T00:07:39.118Z,63.51
2022-09-04T00:08:38.067Z,63.92
2022-09-04T00:09:38.346Z,64.12
2022-09-04T00:10:38.486Z,63.61
2022-09-04T00:11:38.066Z,63.92
2022-09-04T00:12:38.040Z,64.02
2022-09-04T00:13:38.031Z,64.22
2022-09-04T00:14:38.200Z,64.02
2022-09-04T00:15:38.313Z,64.02
2022-09-04T00:16:38.120Z,64.52
2022-09-04T00:17:38.185Z,64.42
2022-09-04T00:18:37.957Z,64.32
2022-09-04T00:19:37.960Z,64.55
2022-09-04T00:20:38.812Z,64.35
2022-09-04T00:21:38.940Z,64.45
2022-09-04T00:22:38.005Z,64.76
2022-09-04T00:23:37.865Z,64.55
2022-09-04T00:24:38.116Z,64.45
2022-09-04T00:25:37.873Z,64.45
2022-09-04T00:26:37.983Z,65.36
2022-09-04T00:27:37.924Z,65.36
2022-09-04T00:28:38.328Z,65.47
2022-09-04T00:29:38.216Z,65.56
2022-09-04T00:30:38.189Z,65.16
2022-09-04T00:31:37.853Z,65.39
2022-09-04T00:32:38.663Z,65.09
2022-09-04T00:33:39.582Z,65.39
2022-09-04T00:34:38.050Z,65.70
2022-09-04T00:35:37.939Z,65.19
2022-09-04T00:36:37.794Z,65.70
2022-09-04T00:37:37.703Z,65.59
2022-09-04T00:38:38.382Z,65.50
2022-09-04T00:39:38.112Z,65.50
2022-09-04T00:40:38.020Z,66.00
2022-09-04T00:41:39.178Z,66.00
2022-09-04T00:42:37.648Z,65.50
2022-09-04T00:43:37.653Z,66.30
2022-09-04T00:44:37.635Z,65.90
2022-09-04T00:45:37.683Z,65.80
2022-09-04T00:46:37.610Z,66.41
2022-09-04T00:47:37.602Z,66.20
2022-09-04T00:48:37.608Z,66.41
2022-09-04T00:49:37.568Z,66.10
2022-09-04T00:50:37.557Z,66.20
2022-09-04T00:51:37.541Z,66.61
2022-09-04T00:52:37.594Z,66.30
2022-09-04T00:53:37.553Z,66.10
2022-09-04T00:54:37.579Z,66.81
2022-09-04T00:55:37.527Z,66.20
2022-09-04T00:56:37.625Z,66.20
2022-09-04T00:57:37.581Z,66.20
2022-09-04T00:58:37.537Z,66.61
2022-09-04T00:59:37.463Z,66.50
2022-09-04T01:00:37.458Z,66.30
2022-09-04T01:01:38.715Z,66.41
2022-09-04T01:02:37.429Z,66.13
2022-09-04T01:03:37.503Z,66.24
2022-09-04T01:04:37.472Z,67.05
2022-09-04T01:05:37.506Z,66.64
2022-09-04T01:06:37.415Z,66.44
2022-09-04T01:07:37.964Z,66.54
2022-09-04T01:08:37.525Z,66.74
2022-09-04T01:09:37.372Z,66.64
2022-09-04T01:10:37.351Z,66.54
2022-09-04T01:11:37.330Z,66.84
2022-09-04T01:12:37.340Z,66.84
2022-09-04T01:13:37.370Z,67.14
2022-09-04T01:14:37.329Z,67.14
2022-09-04T01:15:37.286Z,67.68
2022-09-04T01:16:37.406Z,67.68
2022-09-04T01:17:37.268Z,67.58
2022-09-04T01:18:37.251Z,67.89
2022-09-04T01:19:37.288Z,67.38
2022-09-04T01:20:37.256Z,68.80
2022-09-04T01:21:37.251Z,67.99
2022-09-04T01:22:37.424Z,67.99
2022-09-04T01:23:37.382Z,67.38
2022-09-04T01:24:37.241Z,68.29
2022-09-04T01:25:37.222Z,68.63
2022-09-04T01:26:37.169Z,68.73
2022-09-04T01:27:37.156Z,68.73
2022-09-04T01:28:37.158Z,68.32
2022-09-04T01:29:37.192Z,68.52
2022-09-04T01:30:37.209Z,69.34
2022-09-04T01:31:37.201Z,68.83
2022-09-04T01:32:37.104Z,69.03
2022-09-04T01:33:37.147Z,69.03
2022-09-04T01:34:37.197Z,69.34
2022-09-04T01:35:37.249Z,69.03
2022-09-04T01:36:37.090Z,68.93
2022-09-04T01:37:37.054Z,69.34
2022-09-04T01:38:37.074Z,69.84
2022-09-04T01:39:37.214Z,69.68
2022-09-04T01:40:37.077Z,69.37
2022-09-04T01:41:38.644Z,69.98
2022-09-04T01:42:36.994Z,70.08
2022-09-04T01:43:37.001Z,70.69
2022-09-04T01:44:36.982Z,70.18
2022-09-04T01:45:37.011Z,70.48
2022-09-04T01:46:37.119Z,71.00
2022-09-04T01:47:36.980Z,70.48
2022-09-04T01:48:36.927Z,70.79
2022-09-04T01:49:36.946Z,70.11
2022-09-04T01:50:36.942Z,70.92
2022-09-04T01:51:36.973Z,70.83
2022-09-04T01:52:36.972Z,71.23
2022-09-04T01:53:36.947Z,70.92
2022-09-04T01:54:36.872Z,71.23
2022-09-04T01:55:36.876Z,71.73
2022-09-04T01:56:36.841Z,71.44
2022-09-04T01:57:36.900Z,71.64
2022-09-04T01:58:36.830Z,71.64
2022-09-04T01:59:36.814Z,71.53
2022-09-04T02:00:37.922Z,71.64
2022-09-04T02:01:36.853Z,71.44
2022-09-04T02:02:36.902Z,71.53
2022-09-04T02:03:36.813Z,71.64
2022-09-04T02:04:36.751Z,71.44
2022-09-04T02:05:36.785Z,71.44
2022-09-04T02:06:36.762Z,71.23
2022-09-04T02:07:36.727Z,71.47
2022-09-04T02:08:36.722Z,72.34
2022-09-04T02:09:36.719Z,72.14
2022-09-04T02:10:36.730Z,71.88
2022-09-04T02:11:36.685Z,71.77
2022-09-04T02:12:36.676Z,71.67
2022-09-04T02:13:36.670Z,72.17
2022-09-04T02:14:36.659Z,71.97
2022-09-04T02:15:36.645Z,71.77
2022-09-04T02:16:36.788Z,71.88
2022-09-04T02:17:36.619Z,72.48
2022-09-04T02:18:36.590Z,72.58
2022-09-04T02:19:36.590Z,72.58
2022-09-04T02:20:36.680Z,72.38
2022-09-04T02:21:36.599Z,72.48
2022-09-04T02:22:36.565Z,72.08
2022-09-04T02:23:36.562Z,72.08
2022-09-04T02:24:36.533Z,71.97
2022-09-04T02:25:36.543Z,72.28
2022-09-04T02:26:36.513Z,72.89
2022-09-04T02:27:36.530Z,72.89
2022-09-04T02:28:36.566Z,72.78
2022-09-04T02:29:36.493Z,72.78
2022-09-04T02:30:36.470Z,72.69
2022-09-04T02:31:36.622Z,72.69
2022-09-04T02:32:36.453Z,72.89
2022-09-04T02:33:36.485Z,72.38
2022-09-04T02:34:36.421Z,71.97
2022-09-04T02:35:36.438Z,72.38
2022-09-04T02:36:36.423Z,72.28
2022-09-04T02:37:36.410Z,72.82
2022-09-04T02:38:36.408Z,72.72
2022-09-04T02:39:36.427Z,73.13
2022-09-04T02:40:36.361Z,73.33
2022-09-04T02:41:36.427Z,73.63
2022-09-04T02:42:36.334Z,73.94
2022-09-04T02:43:36.341Z,73.83
2022-09-04T02:44:36.361Z,74.04
2022-09-04T02:45:36.318Z,74.68
2022-09-04T02:46:38.143Z,74.38
2022-09-04T02:47:36.315Z,74.79
2022-09-04T02:48:36.303Z,74.38
2022-09-04T02:49:36.299Z,74.48
2022-09-04T02:50:36.266Z,74.07
2022-09-04T02:51:36.246Z,75.09
2022-09-04T02:52:36.277Z,74.79
2022-09-04T02:53:36.251Z,75.29
2022-09-04T02:54:36.251Z,75.29
2022-09-04T02:55:36.263Z,75.29
2022-09-04T02:56:36.192Z,75.29
2022-09-04T02:57:36.207Z,75.40
2022-09-04T02:58:36.178Z,75.70
2022-09-04T02:59:36.187Z,75.29
2022-09-04T03:00:36.226Z,75.49
2022-09-04T03:01:36.345Z,75.09
2022-09-04T03:02:36.145Z,75.12
2022-09-04T03:03:36.136Z,74.72
2022-09-04T03:04:36.111Z,75.12
2022-09-04T03:05:36.147Z,75.02
2022-09-04T03:06:36.092Z,75.23
2022-09-04T03:07:36.136Z,74.82
2022-09-04T03:08:36.582Z,75.43
2022-09-04T03:09:36.064Z,76.14
2022-09-04T03:10:36.084Z,76.34
2022-09-04T03:11:36.059Z,76.45
2022-09-04T03:12:36.032Z,76.45
2022-09-04T03:13:36.087Z,76.45
2022-09-04T03:14:36.008Z,77.06
2022-09-04T03:15:36.024Z,76.45
2022-09-04T03:16:36.090Z,75.94
2022-09-04T03:17:35.984Z,76.89
2022-09-04T03:18:35.991Z,77.09
2022-09-04T03:19:36.048Z,76.89
2022-09-04T03:20:36.001Z,76.99
2022-09-04T03:21:36.231Z,76.68
2022-09-04T03:22:35.929Z,77.09
2022-09-04T03:23:35.964Z,76.99
2022-09-04T03:24:35.959Z,76.79
2022-09-04T03:25:35.917Z,77.09
2022-09-04T03:26:35.908Z,77.29
2022-09-04T03:27:35.903Z,77.50
2022-09-04T03:28:35.901Z,77.40
2022-09-04T03:29:35.848Z,77.20
2022-09-04T03:30:35.883Z,77.29
2022-09-04T03:31:36.367Z,77.40
2022-09-04T03:32:39.332Z,77.81
2022-09-04T03:33:35.941Z,77.91
2022-09-04T03:34:36.248Z,78.11
2022-09-04T03:35:35.839Z,77.94
2022-09-04T03:36:35.813Z,78.25
2022-09-04T03:37:35.934Z,77.53
2022-09-04T03:38:35.917Z,78.55
2022-09-04T03:39:35.858Z,77.53
2022-09-04T03:40:35.841Z,77.84
2022-09-04T03:41:35.732Z,78.15
2022-09-04T03:42:35.736Z,79.27
2022-09-04T03:43:35.710Z,78.96
2022-09-04T03:44:35.741Z,78.86
2022-09-04T03:45:35.741Z,79.06
2022-09-04T03:46:35.693Z,78.15
2022-09-04T03:47:35.674Z,79.27
2022-09-04T03:48:35.656Z,79.10
2022-09-04T03:49:35.658Z,78.80
2022-09-04T03:50:35.700Z,79.30
2022-09-04T03:51:35.637Z,79.10
2022-09-04T03:52:35.610Z,79.50
2022-09-04T03:53:35.615Z,79.41
2022-09-04T03:54:35.602Z,79.81
2022-09-04T03:55:35.590Z,79.50
2022-09-04T03:56:35.586Z,78.45
2022-09-04T03:57:35.611Z,78.66
2022-09-04T03:58:35.521Z,78.25
2022-09-04T03:59:37.924Z,78.25
2022-09-04T04:00:35.647Z,78.05
2022-09-04T04:01:35.542Z,78.86
2022-09-04T04:02:35.615Z,79.57
2022-09-04T04:03:35.634Z,80.49
2022-09-04T04:04:35.581Z,80.29
2022-09-04T04:05:35.611Z,80.29
2022-09-04T04:06:35.550Z,81.20
2022-09-04T04:07:35.509Z,79.88
2022-09-04T04:08:35.583Z,80.38
2022-09-04T04:09:35.517Z,81.81
2022-09-04T04:10:35.551Z,82.73
2022-09-04T04:11:40.120Z,81.71
2022-09-04T04:12:35.430Z,80.79
2022-09-04T04:13:35.657Z,80.29
2022-09-04T04:14:35.386Z,80.08
2022-09-04T04:15:35.452Z,81.10
2022-09-04T04:16:35.409Z,82.12
2022-09-04T04:17:35.417Z,81.30
2022-09-04T04:18:35.454Z,82.12
2022-09-04T04:19:35.385Z,82.21
2022-09-04T04:20:35.671Z,81.51
2022-09-04T04:21:35.370Z,81.20
2022-09-04T04:22:35.251Z,82.12
2022-09-04T04:23:35.309Z,81.91
2022-09-04T04:24:35.207Z,83.95
2022-09-04T04:25:35.237Z,81.81
2022-09-04T04:26:35.244Z,80.79
2022-09-04T04:27:35.172Z,81.51
2022-09-04T04:28:35.193Z,81.60
2022-09-04T04:29:35.163Z,82.28
2022-09-04T04:30:35.148Z,81.57
2022-09-04T04:31:35.192Z,82.42
2022-09-04T04:32:35.180Z,81.40
2022-09-04T04:33:35.270Z,82.52
2022-09-04T04:34:35.098Z,82.01
2022-09-04T04:35:35.089Z,80.79
2022-09-04T04:36:35.162Z,81.81
2022-09-04T04:37:35.104Z,81.40
2022-09-04T04:38:35.058Z,81.20
2022-09-04T04:39:35.100Z,81.20
2022-09-04T04:40:35.070Z,81.10
2022-09-04T04:41:35.086Z,81.40
2022-09-04T04:42:35.304Z,80.29
2022-09-04T04:43:35.032Z,83.03
2022-09-04T04:44:35.026Z,83.03
2022-09-04T04:45:35.121Z,82.01
2022-09-04T04:46:35.171Z,82.12
2022-09-04T04:47:35.042Z,81.60
2022-09-04T04:48:34.965Z,82.21
2022-09-04T04:49:34.994Z,80.45
2022-09-04T04:50:35.157Z,82.07
2022-09-04T04:51:34.945Z,79.84
2022-09-04T04:52:35.001Z,81.57
2022-09-04T04:53:35.052Z,83.09
2022-09-04T04:54:34.935Z,81.26
2022-09-04T04:55:34.900Z,80.96
2022-09-04T04:56:34.922Z,80.85
2022-09-04T04:57:34.948Z,81.16
2022-09-04T04:58:34.913Z,81.87
2022-09-04T04:59:34.830Z,80.96
2022-09-04T05:00:34.860Z,81.87
2022-09-04T05:01:34.985Z,81.57
2022-09-04T05:02:35.098Z,80.65
2022-09-04T05:03:34.876Z,80.55
2022-09-04T05:04:34.874Z,79.94
2022-09-04T05:05:34.780Z,80.04
2022-09-04T05:06:34.790Z,80.24
2022-09-04T05:07:34.777Z,79.84
2022-09-04T05:08:34.776Z,79.63
2022-09-04T05:09:34.794Z,79.33
2022-09-04T05:10:34.917Z,80.15
2022-09-04T05:11:34.728Z,79.94
2022-09-04T05:12:34.704Z,79.63
2022-09-04T05:13:34.750Z,79.63
2022-09-04T05:14:34.682Z,81.16
2022-09-04T05:15:43.812Z,79.43
2022-09-04T05:16:34.800Z,81.06
2022-09-04T05:17:34.705Z,79.02
2022-09-04T05:18:34.720Z,79.13
2022-09-04T05:19:34.750Z,79.33
2022-09-04T05:20:34.637Z,80.15
2022-09-04T05:21:34.661Z,79.94
2022-09-04T05:22:34.650Z,81.57
2022-09-04T05:23:34.636Z,80.15
2022-09-04T05:24:34.617Z,80.76
2022-09-04T05:25:34.577Z,81.06
2022-09-04T05:26:34.607Z,79.13
2022-09-04T05:27:34.587Z,79.74
2022-09-04T05:28:34.580Z,79.94
2022-09-04T05:29:34.607Z,78.11
2022-09-04T05:30:34.499Z,77.50
2022-09-04T05:31:34.615Z,78.11
2022-09-04T05:32:34.504Z,78.01
2022-09-04T05:33:34.497Z,81.23
2022-09-04T05:34:34.572Z,80.62
2022-09-04T05:35:35.525Z,79.90
2022-09-04T05:36:34.462Z,79.70
2022-09-04T05:37:34.613Z,79.50
2022-09-04T05:38:34.446Z,78.78
2022-09-04T05:39:34.568Z,80.51
2022-09-04T05:40:34.524Z,79.90
2022-09-04T05:41:34.554Z,79.19
2022-09-04T05:42:34.393Z,79.19
2022-09-04T05:43:34.434Z,78.89
2022-09-04T05:44:34.430Z,79.86
2022-09-04T05:45:34.356Z,79.56
2022-09-04T05:46:34.635Z,79.16
2022-09-04T05:47:34.728Z,78.55
2022-09-04T05:48:34.381Z,78.14
2022-09-04T05:49:34.453Z,78.10
2022-09-04T05:50:34.362Z,77.09
2022-09-04T05:51:34.839Z,76.48
2022-09-04T05:52:34.356Z,76.44
2022-09-04T05:53:34.644Z,75.52
2022-09-04T05:54:34.322Z,75.39
2022-09-04T05:55:34.619Z,75.29
2022-09-04T05:56:34.258Z,75.70
2022-09-04T05:57:34.315Z,75.29
2022-09-04T05:58:34.225Z,74.68
2022-09-04T05:59:34.242Z,74.68
2022-09-04T06:00:34.246Z,74.85
2022-09-04T06:01:34.308Z,74.74
2022-09-04T06:02:34.289Z,74.65
2022-09-04T06:03:34.199Z,74.14
2022-09-04T06:04:34.169Z,73.83
2022-09-04T06:05:34.171Z,73.73
2022-09-04T06:06:34.245Z,74.41
2022-09-04T06:07:34.169Z,74.61
2022-09-04T06:08:34.138Z,74.10
2022-09-04T06:09:34.093Z,73.29
2022-09-04T06:10:34.091Z,73.39
2022-09-04T06:11:34.230Z,72.99
2022-09-04T06:12:34.133Z,72.48
2022-09-04T06:13:34.135Z,72.99
2022-09-04T06:14:34.059Z,71.84
2022-09-04T06:15:34.025Z,72.04
2022-09-04T06:16:34.038Z,71.84
2022-09-04T06:17:34.004Z,72.14
2022-09-04T06:18:34.016Z,71.44
2022-09-04T06:19:33.995Z,71.44
2022-09-04T06:20:33.967Z,71.30
2022-09-04T06:21:34.117Z,70.69
2022-09-04T06:22:33.983Z,70.79
2022-09-04T06:23:34.050Z,70.89
2022-09-04T06:24:33.977Z,70.49
2022-09-04T06:25:33.944Z,71.00
2022-09-04T06:26:33.973Z,70.59
2022-09-04T06:27:35.365Z,70.36
2022-09-04T06:28:33.890Z,70.15
2022-09-04T06:29:34.128Z,69.14
2022-09-04T06:30:33.959Z,69.95
2022-09-04T06:31:33.998Z,70.05
2022-09-04T06:32:33.960Z,69.34
2022-09-04T06:33:33.824Z,69.51
2022-09-04T06:34:33.824Z,69.01
2022-09-04T06:35:33.804Z,68.60
2022-09-04T06:36:33.803Z,69.31
2022-09-04T06:37:33.800Z,69.31
2022-09-04T06:38:33.793Z,69.38
2022-09-04T06:39:33.853Z,68.87
2022-09-04T06:40:33.817Z,69.48
2022-09-04T06:41:33.875Z,68.97
2022-09-04T06:42:33.901Z,68.03
2022-09-04T06:43:33.741Z,69.14
2022-09-04T06:44:33.709Z,68.13
2022-09-04T06:45:33.697Z,67.83
2022-09-04T06:46:33.964Z,68.40
2022-09-04T06:47:33.692Z,67.29
2022-09-04T06:48:33.857Z,67.06
2022-09-04T06:49:33.672Z,67.16
2022-09-04T06:50:33.673Z,66.62
2022-09-04T06:51:33.641Z,66.02
2022-09-04T06:52:33.653Z,65.81
2022-09-04T06:53:33.638Z,64.98
2022-09-04T06:54:33.644Z,65.99
2022-09-04T06:55:33.593Z,65.48
2022-09-04T06:56:33.658Z,65.78
2022-09-04T06:57:33.608Z,65.68
2022-09-04T06:58:33.570Z,64.98
2022-09-04T06:59:33.571Z,65.05
2022-09-04T07:00:33.556Z,64.84
2022-09-04T07:01:33.661Z,64.11
2022-09-04T07:02:33.750Z,63.60
2022-09-04T07:03:33.614Z,63.50
2022-09-04T07:04:33.559Z,63.67
2022-09-04T07:05:33.483Z,63.98
2022-09-04T07:06:33.647Z,65.29
2022-09-04T07:07:33.538Z,64.65
2022-09-04T07:08:33.485Z,63.75
2022-09-04T07:09:33.479Z,64.45
2022-09-04T07:10:33.553Z,63.65
2022-09-04T07:11:33.512Z,64.22
2022-09-04T07:12:33.467Z,64.42
2022-09-04T07:13:33.505Z,64.62
2022-09-04T07:14:33.506Z,63.39
2022-09-04T07:15:33.643Z,63.39
2022-09-04T07:16:33.435Z,62.07
2022-09-04T07:17:33.515Z,62.48
2022-09-04T07:18:33.393Z,62.55
2022-09-04T07:19:33.349Z,62.55
2022-09-04T07:20:33.351Z,62.24
2022-09-04T07:21:33.349Z,63.53
2022-09-04T07:22:33.482Z,61.41
2022-09-04T07:23:33.409Z,61.82
2022-09-04T07:24:33.307Z,60.81
2022-09-04T07:25:33.293Z,60.81
2022-09-04T07:26:34.338Z,61.01
2022-09-04T07:27:33.256Z,61.58
2022-09-04T07:28:33.263Z,62.08
2022-09-04T07:29:33.240Z,61.08
2022-09-04T07:30:33.219Z,61.08
2022-09-04T07:31:33.644Z,61.18
2022-09-04T07:32:33.309Z,62.46
2022-09-04T07:33:33.252Z,60.85
2022-09-04T07:34:33.193Z,60.96
2022-09-04T07:35:33.169Z,61.76
2022-09-04T07:36:33.143Z,62.13
2022-09-04T07:37:33.133Z,60.62
2022-09-04T07:38:33.180Z,61.13
2022-09-04T07:39:33.169Z,62.23
2022-09-04T07:40:33.319Z,61.13
2022-09-04T07:41:33.440Z,61.52
2022-09-04T07:42:33.102Z,60.60
2022-09-04T07:43:33.226Z,61.10
2022-09-04T07:44:33.100Z,60.60
2022-09-04T07:45:33.057Z,60.19
2022-09-04T07:46:33.150Z,60.69
2022-09-04T07:47:33.042Z,61.10
2022-09-04T07:48:33.028Z,60.19
2022-09-04T07:49:33.053Z,60.86
2022-09-04T07:50:33.079Z,60.06
2022-09-04T07:51:32.994Z,60.16
2022-09-04T07:52:32.993Z,60.57
2022-09-04T07:53:32.981Z,60.94
2022-09-04T07:54:32.962Z,61.04
2022-09-04T07:55:33.000Z,59.53
2022-09-04T07:56:32.946Z,59.13
2022-09-04T07:57:32.924Z,59.31
2022-09-04T07:58:32.930Z,59.91
2022-09-04T07:59:33.062Z,58.61
2022-09-04T08:00:32.918Z,58.11
2022-09-04T08:01:35.078Z,58.50
2022-09-04T08:02:32.914Z,58.58
2022-09-04T08:03:32.921Z,58.78
2022-09-04T08:04:32.886Z,59.05
2022-09-04T08:05:32.857Z,57.45
2022-09-04T08:06:32.835Z,59.15
2022-09-04T08:07:32.816Z,58.85
2022-09-04T08:08:32.805Z,58.25
2022-09-04T08:09:32.990Z,58.45
2022-09-04T08:10:32.801Z,59.05
2022-09-04T08:11:32.997Z,58.45
2022-09-04T08:12:32.798Z,58.55
2022-09-04T08:13:32.749Z,58.32
2022-09-04T08:14:32.808Z,59.02
2022-09-04T08:15:32.872Z,59.22
2022-09-04T08:16:32.737Z,58.80
2022-09-04T08:17:32.731Z,57.72
2022-09-04T08:18:32.743Z,59.32
2022-09-04T08:19:32.689Z,58.12
2022-09-04T08:20:32.715Z,58.29
2022-09-04T08:21:32.678Z,58.06
2022-09-04T08:22:32.664Z,58.06
2022-09-04T08:23:32.663Z,57.76
2022-09-04T08:24:32.635Z,57.87
2022-09-04T08:25:32.639Z,57.67
2022-09-04T08:26:32.624Z,57.97
2022-09-04T08:27:32.620Z,57.87
2022-09-04T08:28:32.597Z,58.24
2022-09-04T08:29:32.623Z,56.54
2022-09-04T08:30:32.582Z,57.21
2022-09-04T08:31:32.582Z,57.74
2022-09-04T08:32:38.307Z,58.41
2022-09-04T08:33:32.543Z,57.41
2022-09-04T08:34:32.543Z,56.31
2022-09-04T08:35:32.591Z,56.61
2022-09-04T08:36:32.546Z,56.88
2022-09-04T08:37:32.501Z,56.29
2022-09-04T08:38:32.490Z,56.98
2022-09-04T08:39:32.527Z,57.61
2022-09-04T08:40:32.550Z,56.71
2022-09-04T08:41:32.515Z,56.71
2022-09-04T08:42:32.479Z,58.08
2022-09-04T08:43:32.499Z,57.71
2022-09-04T08:44:32.430Z,58.81
2022-09-04T08:45:32.433Z,59.21
2022-09-04T08:46:32.520Z,59.98
2022-09-04T08:47:32.848Z,60.58
2022-09-04T08:48:32.420Z,58.08
2022-09-04T08:49:32.364Z,57.76
2022-09-04T08:50:32.556Z,57.86
2022-09-04T08:51:32.470Z,57.06
2022-09-04T08:52:32.373Z,57.53
2022-09-04T08:53:32.401Z,57.33
2022-09-04T08:54:32.394Z,57.33
2022-09-04T08:55:32.326Z,57.53
2022-09-04T08:56:32.400Z,57.43
2022-09-04T08:57:32.552Z,57.93
2022-09-04T08:58:32.292Z,57.53
2022-09-04T08:59:32.268Z,56.63
2022-09-04T09:00:32.266Z,57.93
2022-09-04T09:01:32.320Z,58.53
2022-09-04T09:02:32.357Z,56.53
2022-09-04T09:03:32.232Z,56.70
2022-09-04T09:04:32.208Z,56.21
2022-09-04T09:05:32.181Z,56.40
2022-09-04T09:06:32.341Z,57.07
2022-09-04T09:07:32.200Z,57.07
2022-09-04T09:08:32.380Z,56.57
2022-09-04T09:09:32.160Z,56.87
2022-09-04T09:10:32.138Z,55.28
2022-09-04T09:11:32.123Z,56.10
2022-09-04T09:12:40.890Z,56.27
2022-09-04T09:13:32.099Z,55.78
2022-09-04T09:14:32.175Z,56.68
2022-09-04T09:15:32.097Z,55.88
2022-09-04T09:16:32.278Z,56.57
2022-09-04T09:17:34.470Z,56.18
2022-09-04T09:18:32.083Z,56.77
2022-09-04T09:19:32.039Z,55.16
2022-09-04T09:20:32.055Z,55.88
2022-09-04T09:21:32.026Z,56.15
2022-09-04T09:22:32.044Z,56.05
2022-09-04T09:23:32.016Z,56.25
2022-09-04T09:24:32.005Z,56.12
2022-09-04T09:25:31.991Z,56.23
2022-09-04T09:26:31.985Z,54.41
2022-09-04T09:27:31.961Z,54.50
2022-09-04T09:28:31.961Z,54.71
2022-09-04T09:29:31.932Z,53.91
2022-09-04T09:30:31.987Z,54.80
2022-09-04T09:31:31.941Z,53.51
2022-09-04T09:32:32.158Z,53.78
2022-09-04T09:33:31.961Z,53.39
2022-09-04T09:34:33.374Z,53.58
2022-09-04T09:35:32.199Z,53.02
2022-09-04T09:36:31.952Z,54.28
2022-09-04T09:37:32.010Z,53.49
2022-09-04T09:38:31.958Z,53.69
2022-09-04T09:39:32.084Z,54.65
2022-09-04T09:40:31.955Z,53.36
2022-09-04T09:41:31.821Z,53.44
2022-09-04T09:42:31.842Z,52.44
2022-09-04T09:43:31.815Z,51.95
2022-09-04T09:44:31.861Z,52.94
2022-09-04T09:45:31.978Z,52.14
2022-09-04T09:46:31.777Z,51.75
2022-09-04T09:47:31.849Z,52.12
2022-09-04T09:48:31.763Z,51.82
2022-09-04T09:49:31.923Z,50.95
2022-09-04T09:50:31.818Z,53.04
2022-09-04T09:51:31.785Z,52.42
2022-09-04T09:52:31.727Z,52.31
2022-09-04T09:53:31.709Z,51.30
2022-09-04T09:54:31.731Z,52.19
2022-09-04T09:55:31.701Z,52.09
2022-09-04T09:56:31.754Z,49.91
2022-09-04T09:57:33.414Z,50.81
2022-09-04T09:58:31.679Z,50.81
2022-09-04T09:59:31.722Z,50.51
2022-09-04T10:00:31.768Z,50.28
2022-09-04T10:01:31.904Z,51.57
2022-09-04T10:02:31.683Z,49.96
2022-09-04T10:03:31.636Z,50.26
2022-09-04T10:04:34.188Z,50.06
2022-09-04T10:05:31.580Z,50.34
2022-09-04T10:06:31.634Z,48.03
2022-09-04T10:07:31.870Z,48.72
2022-09-04T10:08:36.062Z,47.91
2022-09-04T10:09:31.547Z,48.11
2022-09-04T10:10:31.584Z,47.02
2022-09-04T10:11:31.532Z,47.49
2022-09-04T10:12:31.566Z,46.20
2022-09-04T10:13:31.505Z,47.56
2022-09-04T10:14:31.502Z,46.88
2022-09-04T10:15:31.510Z,46.48
2022-09-04T10:16:31.569Z,46.18
2022-09-04T10:17:31.807Z,45.68
2022-09-04T10:18:31.557Z,46.67
2022-09-04T10:19:31.548Z,46.93
2022-09-04T10:20:31.424Z,46.81
2022-09-04T10:21:31.396Z,45.70
2022-09-04T10:22:31.421Z,44.61
2022-09-04T10:23:31.388Z,44.81
2022-09-04T10:24:31.391Z,45.50
2022-09-04T10:25:31.385Z,43.62
2022-09-04T10:26:31.803Z,43.48
2022-09-04T10:27:31.355Z,42.47
2022-09-04T10:28:31.353Z,42.28
2022-09-04T10:29:31.352Z,43.05
2022-09-04T10:30:31.384Z,41.65
2022-09-04T10:31:31.304Z,40.27
2022-09-04T10:32:31.352Z,41.47
2022-09-04T10:33:31.345Z,41.49
2022-09-04T10:34:31.367Z,41.61
2022-09-04T10:35:31.269Z,41.31
2022-09-04T10:36:31.262Z,42.46
2022-09-04T10:37:31.332Z,41.45
2022-09-04T10:38:32.029Z,42.32
2022-09-04T10:39:31.311Z,41.02
2022-09-04T10:40:31.701Z,41.31
2022-09-04T10:41:31.315Z,39.34
2022-09-04T10:42:31.199Z,38.97
2022-09-04T10:43:31.208Z,39.28
2022-09-04T10:44:31.222Z,40.27
2022-09-04T10:45:31.363Z,40.08
2022-09-04T10:46:31.203Z,39.95
2022-09-04T10:47:31.196Z,39.62
2022-09-04T10:48:31.162Z,39.21
2022-09-04T10:49:31.384Z,38.01
2022-09-04T10:50:31.119Z,38.52
2022-09-04T10:51:31.137Z,39.40
2022-09-04T10:52:31.111Z,39.19
2022-09-04T10:53:31.440Z,38.48
2022-09-04T10:54:31.060Z,38.01
2022-09-04T10:55:31.062Z,38.72
2022-09-04T10:56:31.041Z,38.52
2022-09-04T10:57:31.102Z,38.60
2022-09-04T10:58:31.024Z,38.58
2022-09-04T10:59:31.018Z,36.82
2022-09-04T11:00:31.020Z,36.82
2022-09-04T11:01:31.054Z,36.39
2022-09-04T11:02:31.627Z,37.17
2022-09-04T11:03:31.007Z,35.97
2022-09-04T11:04:30.957Z,35.41
2022-09-04T11:05:30.956Z,36.29
2022-09-04T11:06:30.926Z,36.11
2022-09-04T11:07:30.946Z,36.72
2022-09-04T11:08:30.917Z,36.32
2022-09-04T11:09:30.914Z,36.58
2022-09-04T11:10:30.888Z,35.80
2022-09-04T11:11:30.905Z,36.58
2022-09-04T11:12:30.894Z,35.50
2022-09-04T11:13:30.941Z,35.68
2022-09-04T11:14:30.861Z,36.16
2022-09-04T11:15:30.920Z,35.00
2022-09-04T11:16:30.877Z,34.98
2022-09-04T11:17:30.896Z,35.85
2022-09-04T11:18:30.930Z,34.65
2022-09-04T11:19:30.853Z,33.17
2022-09-04T11:20:30.894Z,34.03
2022-09-04T11:21:30.783Z,33.74
2022-09-04T11:22:30.784Z,34.80
2022-09-04T11:23:30.773Z,35.50
2022-09-04T11:24:30.846Z,36.57
2022-09-04T11:25:30.792Z,35.73
2022-09-04T11:26:30.726Z,35.71
2022-09-04T11:27:30.758Z,33.45
2022-09-04T11:28:30.721Z,33.54
2022-09-04T11:29:30.730Z,34.52
2022-09-04T11:30:30.732Z,34.29
2022-09-04T11:31:30.699Z,32.63
2022-09-04T11:32:30.702Z,32.89
2022-09-04T11:33:30.692Z,31.99
2022-09-04T11:34:30.690Z,30.80
2022-09-04T11:35:30.650Z,31.38
2022-09-04T11:36:30.691Z,30.71
2022-09-04T11:37:30.610Z,31.70
2022-09-04T11:38:30.608Z,32.32
2022-09-04T11:39:30.803Z,31.65
2022-09-04T11:40:30.659Z,32.14
2022-09-04T11:41:30.618Z,33.64
2022-09-04T11:42:30.600Z,33.07
2022-09-04T11:43:30.599Z,33.39
2022-09-04T11:44:30.566Z,34.10
2022-09-04T11:45:30.611Z,34.10
2022-09-04T11:46:30.525Z,34.51
2022-09-04T11:47:30.521Z,34.90
2022-09-04T11:48:30.590Z,34.86
2022-09-04T11:49:30.521Z,34.65
2022-09-04T11:50:30.566Z,32.70
2022-09-04T11:51:30.526Z,33.74
2022-09-04T11:52:30.483Z,33.33
2022-09-04T11:53:30.466Z,33.41
2022-09-04T11:54:30.481Z,32.81
2022-09-04T11:55:30.480Z,30.86
2022-09-04T11:56:30.431Z,31.54
2022-09-04T11:57:30.691Z,32.24
2022-09-04T11:58:30.435Z,31.38
2022-09-04T11:59:30.500Z,32.56
2022-09-04T12:00:30.425Z,33.45
2022-09-04T12:01:30.498Z,32.27
2022-09-04T12:02:30.414Z,32.27
2022-09-04T12:03:30.468Z,32.24
2022-09-04T12:04:30.997Z,31.65
2022-09-04T12:05:30.373Z,32.42
2022-09-04T12:06:30.334Z,31.36
2022-09-04T12:07:36.695Z,31.05
2022-09-04T12:08:30.326Z,30.74
2022-09-04T12:09:30.323Z,31.98
2022-09-04T12:10:30.334Z,29.95
2022-09-04T12:11:30.334Z,29.74
2022-09-04T12:12:30.315Z,29.72
2022-09-04T12:13:30.719Z,30.11
2022-09-04T12:14:30.277Z,29.03
2022-09-04T12:15:30.282Z,28.80
2022-09-04T12:16:30.314Z,28.78
2022-09-04T12:17:30.251Z,28.57
2022-09-04T12:18:30.217Z,28.19
2022-09-04T12:19:30.241Z,28.50
2022-09-04T12:20:30.235Z,28.79
2022-09-04T12:21:30.226Z,29.75
2022-09-04T12:22:30.524Z,28.79
2022-09-04T12:23:36.784Z,28.58
2022-09-04T12:24:30.183Z,28.02
2022-09-04T12:25:30.231Z,28.30
2022-09-04T12:26:30.200Z,30.36
2022-09-04T12:27:30.150Z,28.20
2022-09-04T12:28:30.189Z,27.87
2022-09-04T12:29:30.198Z,28.05
2022-09-04T12:30:30.172Z,27.25
2022-09-04T12:31:30.273Z,26.27
2022-09-04T12:32:30.117Z,26.33
2022-09-04T12:33:30.209Z,29.14
2022-09-04T12:34:30.072Z,30.57
2022-09-04T12:35:31.984Z,30.90
2022-09-04T12:36:30.074Z,32.04
2022-09-04T12:37:30.064Z,32.84
2022-09-04T12:38:30.054Z,32.89
2022-09-04T12:39:30.103Z,34.13
2022-09-04T12:40:30.045Z,34.66
2022-09-04T12:41:30.041Z,36.46
2022-09-04T12:42:29.992Z,36.28
2022-09-04T12:43:30.146Z,35.13
2022-09-04T12:44:30.032Z,34.08
2022-09-04T12:45:30.031Z,32.76
2022-09-04T12:46:29.963Z,31.26
2022-09-04T12:47:31.357Z,31.96
2022-09-04T12:48:30.007Z,32.20
2022-09-04T12:49:29.955Z,32.65
2022-09-04T12:50:29.929Z,31.62
2022-09-04T12:51:29.929Z,30.70
2022-09-04T12:52:29.933Z,29.92